createdAt,value
2023-04-03T00:01:49.086Z,97868.03
2023-04-03T00:04:16.824Z,97863.34
2023-04-03T00:06:43.936Z,97861.66
2023-04-03T00:09:11.313Z,97869.72
2023-04-03T00:11:38.469Z,97866.25
2023-04-03T00:14:05.680Z,97864.69
2023-04-03T00:16:32.957Z,97869.97
2023-04-03T00:19:03.615Z,97871.66
2023-04-03T00:21:37.089Z,97865.66
2023-04-03T00:24:04.149Z,97863.97
2023-04-03T00:26:31.396Z,97864.09
2023-04-03T00:28:59.036Z,97864.22
2023-04-03T00:31:26.445Z,97864.94
2023-04-03T00:33:53.540Z,97863.25
2023-04-03T00:36:28.045Z,97860.75
2023-04-03T00:38:55.794Z,97866.88
2023-04-03T00:41:26.944Z,97863.38
2023-04-03T00:44:05.872Z,97863.50
2023-04-03T00:46:42.440Z,97866.03
2023-04-03T00:49:18.788Z,97865.19
2023-04-03T00:51:52.254Z,97867.84
2023-04-03T00:54:22.759Z,97864.34
2023-04-03T00:56:53.030Z,97857.50
2023-04-03T00:59:35.800Z,97861.81
2023-04-03T01:02:03.175Z,97863.50
2023-04-03T01:04:39.306Z,97856.78
2023-04-03T01:07:12.005Z,97864.59
2023-04-03T01:09:41.107Z,97860.53
2023-04-03T01:12:30.777Z,97861.25
2023-04-03T01:15:02.306Z,97862.91
2023-04-03T01:17:31.656Z,97863.03
2023-04-03T01:20:33.156Z,97874.44
2023-04-03T01:23:31.591Z,97876.97
2023-04-03T01:25:59.118Z,97876.25
2023-04-03T01:28:42.446Z,97886.81
2023-04-03T01:31:20.467Z,97876.50
2023-04-03T01:33:51.078Z,97881.91
2023-04-03T01:36:28.867Z,97883.59
2023-04-03T01:39:04.078Z,97880.94
2023-04-03T01:41:37.310Z,97878.44
2023-04-03T01:44:05.665Z,97886.47
2023-04-03T01:46:36.970Z,97890.69
2023-04-03T01:49:04.951Z,97884.69
2023-04-03T01:51:35.220Z,97884.69
2023-04-03T01:54:02.487Z,97881.31
2023-04-03T01:56:29.854Z,97884.09
2023-04-03T01:58:56.972Z,97886.13
2023-04-03T02:01:27.262Z,97879.03
2023-04-03T02:03:54.477Z,97881.69
2023-04-03T02:06:24.839Z,97884.09
2023-04-03T02:08:55.235Z,97880.84
2023-04-03T02:11:22.486Z,97868.34
2023-04-03T02:13:49.328Z,97879.75
2023-04-03T02:16:16.811Z,97883.50
2023-04-03T02:18:43.842Z,97879.16
2023-04-03T02:21:14.058Z,97885.28
2023-04-03T02:23:41.142Z,97883.50
2023-04-03T02:26:11.013Z,97887.81
2023-04-03T02:28:38.232Z,97886.25
2023-04-03T02:31:07.757Z,97889.03
2023-04-03T02:33:38.529Z,97878.22
2023-04-03T02:36:07.976Z,97881.81
2023-04-03T02:38:36.244Z,97873.41
2023-04-03T02:41:05.032Z,97881.94
2023-04-03T02:43:32.114Z,97879.53
2023-04-03T02:45:59.310Z,97884.56
2023-04-03T02:48:26.706Z,97879.66
2023-04-03T02:50:53.486Z,97888.31
2023-04-03T02:53:21.256Z,97879.66
2023-04-03T02:55:48.199Z,97883.28
2023-04-03T02:58:15.545Z,97887.75
2023-04-03T03:00:42.695Z,97888.69
2023-04-03T03:03:09.818Z,97882.47
2023-04-03T03:05:37.410Z,97889.53
2023-04-03T03:08:04.250Z,97888.56
2023-04-03T03:10:31.540Z,97887.84
2023-04-03T03:12:58.578Z,97881.75
2023-04-03T03:15:25.793Z,97881.81
2023-04-03T03:17:52.885Z,97879.31
2023-04-03T03:20:19.747Z,97876.66
2023-04-03T03:22:46.566Z,97881.94
2023-04-03T03:25:13.487Z,97879.31
2023-04-03T03:27:41.308Z,97881.09
2023-04-03T03:30:08.941Z,97881.94
2023-04-03T03:32:36.138Z,97877.63
2023-04-03T03:35:03.273Z,97880.41
2023-04-03T03:37:30.235Z,97877.75
2023-04-03T03:39:57.079Z,97879.44
2023-04-03T03:42:24.006Z,97879.69
2023-04-03T03:44:51.082Z,97882.31
2023-04-03T03:47:17.947Z,97880.41
2023-04-03T03:49:44.887Z,97874.41
2023-04-03T03:52:11.856Z,97879.91
2023-04-03T03:54:39.351Z,97877.88
2023-04-03T03:57:06.413Z,97884.00
2023-04-03T03:59:33.272Z,97873.69
2023-04-03T04:02:00.257Z,97878.97
2023-04-03T04:04:27.147Z,97879.78
2023-04-03T04:06:54.066Z,97879.06
2023-04-03T04:09:20.970Z,97874.63
2023-04-03T04:11:47.764Z,97874.03
2023-04-03T04:14:14.853Z,97889.03
2023-04-03T04:16:41.756Z,97888.81
2023-04-03T04:19:09.021Z,97889.03
2023-04-03T04:21:36.399Z,97890.72
2023-04-03T04:24:03.281Z,97896.13
2023-04-03T04:26:30.686Z,97892.88
2023-04-03T04:28:57.556Z,97891.09
2023-04-03T04:31:24.624Z,97893.84
2023-04-03T04:33:51.588Z,97895.41
2023-04-03T04:36:18.594Z,97897.22
2023-04-03T04:38:45.725Z,97899.97
2023-04-03T04:41:12.620Z,97906.09
2023-04-03T04:43:39.570Z,97899.97
2023-04-03T04:46:12.915Z,97899.25
2023-04-03T04:48:40.210Z,97900.34
2023-04-03T04:51:07.958Z,97899.63
2023-04-03T04:53:34.975Z,97894.34
2023-04-03T04:56:01.859Z,97904.66
2023-04-03T04:58:28.617Z,97899.38
2023-04-03T05:01:06.959Z,97908.25
2023-04-03T05:03:34.976Z,97906.56
2023-04-03T05:06:01.906Z,97900.44
2023-04-03T05:08:29.185Z,97899.63
2023-04-03T05:10:56.466Z,97911.00
2023-04-03T05:13:23.708Z,97914.72
2023-04-03T05:15:50.568Z,97909.47
2023-04-03T05:18:17.481Z,97914.00
2023-04-03T05:20:44.733Z,97919.28
2023-04-03T05:23:12.691Z,97918.56
2023-04-03T05:25:40.041Z,97919.41
2023-04-03T05:28:07.895Z,97923.75
2023-04-03T05:30:34.936Z,97918.56
2023-04-03T05:33:02.114Z,97923.84
2023-04-03T05:35:29.070Z,97923.84
2023-04-03T05:37:56.442Z,97926.38
2023-04-03T05:40:23.520Z,97926.50
2023-04-03T05:42:50.772Z,97926.50
2023-04-03T05:45:17.874Z,97921.34
2023-04-03T05:47:44.797Z,97923.84
2023-04-03T05:50:11.854Z,97928.28
2023-04-03T05:52:44.452Z,97923.84
2023-04-03T05:55:11.410Z,97928.41
2023-04-03T05:57:38.355Z,97929.25
2023-04-03T06:00:07.771Z,97930.09
2023-04-03T06:02:34.779Z,97919.78
2023-04-03T06:05:01.736Z,97929.25
2023-04-03T06:07:29.644Z,97926.72
2023-04-03T06:09:58.117Z,97933.69
2023-04-03T06:12:25.973Z,97935.38
2023-04-03T06:14:53.435Z,97930.09
2023-04-03T06:17:20.394Z,97930.81
2023-04-03T06:19:47.322Z,97934.66
2023-04-03T06:22:15.541Z,97931.06
2023-04-03T06:24:42.957Z,97929.38
2023-04-03T06:27:14.648Z,97938.97
2023-04-03T06:29:41.798Z,97943.28
2023-04-03T06:32:09.027Z,97942.47
2023-04-03T06:34:38.543Z,97947.63
2023-04-03T06:37:05.861Z,97945.94
2023-04-03T06:39:33.840Z,97945.94
2023-04-03T06:42:00.867Z,97946.78
2023-04-03T06:44:27.813Z,97950.38
2023-04-03T06:46:55.640Z,97947.50
2023-04-03T06:49:22.814Z,97947.63
2023-04-03T06:51:49.888Z,97949.28
2023-04-03T06:54:16.733Z,97952.78
2023-04-03T06:56:43.886Z,97962.38
2023-04-03T06:59:16.026Z,97962.16
2023-04-03T07:01:43.352Z,97963.94
2023-04-03T07:04:10.746Z,97964.78
2023-04-03T07:06:37.784Z,97967.41
2023-04-03T07:09:09.105Z,97966.59
2023-04-03T07:11:37.432Z,97967.41
2023-04-03T07:14:04.636Z,97972.69
2023-04-03T07:16:32.575Z,97978.81
2023-04-03T07:18:59.812Z,97982.19
2023-04-03T07:21:26.947Z,97974.28
2023-04-03T07:23:53.979Z,97970.56
2023-04-03T07:26:22.266Z,97978.59
2023-04-03T07:28:51.042Z,97981.09
2023-04-03T07:31:19.519Z,97984.72
2023-04-03T07:33:47.151Z,97980.28
2023-04-03T07:36:19.091Z,97990.84
2023-04-03T07:38:46.648Z,97988.06
2023-04-03T07:41:16.676Z,97992.41
2023-04-03T07:43:43.693Z,97994.44
2023-04-03T07:46:11.052Z,97991.44
2023-04-03T07:48:38.104Z,97998.63
2023-04-03T07:51:05.997Z,97994.19
2023-04-03T07:53:36.491Z,98004.53
2023-04-03T07:56:04.227Z,98005.13
2023-04-03T07:58:34.474Z,98000.31
2023-04-03T08:01:01.722Z,97999.38
2023-04-03T08:03:29.132Z,98000.31
2023-04-03T08:05:56.539Z,97999.72
2023-04-03T08:08:24.321Z,97999.72
2023-04-03T08:10:55.658Z,98003.09
2023-04-03T08:13:23.150Z,98004.88
2023-04-03T08:15:50.361Z,97996.84
2023-04-03T08:18:19.210Z,98003.81
2023-04-03T08:20:46.176Z,98002.84
2023-04-03T08:23:13.299Z,98008.03
2023-04-03T08:25:46.653Z,98004.66
2023-04-03T08:28:13.954Z,98003.34
2023-04-03T08:30:42.422Z,98009.56
2023-04-03T08:33:10.216Z,98009.69
2023-04-03T08:35:42.063Z,98005.03
2023-04-03T08:38:14.305Z,98009.47
2023-04-03T08:40:42.148Z,98013.69
2023-04-03T08:43:17.960Z,98014.25
2023-04-03T08:45:56.703Z,98018.03
2023-04-03T08:48:30.060Z,98017.28
2023-04-03T08:51:03.626Z,98023.03
2023-04-03T08:53:35.582Z,98015.38
2023-04-03T08:56:09.960Z,98019.56
2023-04-03T08:58:55.136Z,98022.69
2023-04-03T09:01:29.405Z,98016.44
2023-04-03T09:03:56.448Z,98015.59
2023-04-03T09:06:34.176Z,98014.88
2023-04-03T09:09:33.814Z,98014.63
2023-04-03T09:12:20.251Z,98022.56
2023-04-03T09:15:07.084Z,98025.06
2023-04-03T09:17:47.798Z,98020.63
2023-04-03T09:20:29.249Z,98024.00
2023-04-03T09:22:56.578Z,98026.53
2023-04-03T09:25:29.997Z,98020.28
2023-04-03T09:27:58.006Z,98025.56
2023-04-03T09:30:27.235Z,98022.78
2023-04-03T09:32:56.571Z,98027.25
2023-04-03T09:35:47.400Z,98023.63
2023-04-03T09:38:15.395Z,98020.75
2023-04-03T09:40:48.629Z,98026.41
2023-04-03T09:43:18.282Z,98020.16
2023-04-03T09:45:47.346Z,98018.47
2023-04-03T09:48:16.108Z,98021.00
2023-04-03T09:50:59.731Z,98018.47
2023-04-03T09:53:38.119Z,98027.84
2023-04-03T09:56:17.669Z,98027.59
2023-04-03T09:59:07.634Z,98027.34
2023-04-03T10:01:41.044Z,98025.44
2023-04-03T10:04:20.876Z,98019.19
2023-04-03T10:06:52.074Z,98028.06
2023-04-03T10:09:31.963Z,98018.34
2023-04-03T10:12:06.750Z,98018.59
2023-04-03T10:14:36.882Z,98014.16
2023-04-03T10:17:10.479Z,98012.34
2023-04-03T10:20:08.860Z,98003.22
2023-04-03T10:22:44.798Z,98006.81
2023-04-03T10:25:26.403Z,98002.97
2023-04-03T10:28:12.592Z,98005.59
2023-04-03T10:31:08.748Z,97992.00
2023-04-03T10:33:52.997Z,98002.59
2023-04-03T10:36:29.227Z,98008.47
2023-04-03T10:39:20.250Z,97997.78
2023-04-03T10:42:17.221Z,98000.16
2023-04-03T10:45:09.529Z,97998.00
2023-04-03T10:47:49.983Z,97999.69
2023-04-03T10:50:41.497Z,97994.13
2023-04-03T10:53:36.643Z,97999.44
2023-04-03T10:56:09.523Z,98000.28
2023-04-03T10:59:00.379Z,97990.53
2023-04-03T11:01:34.975Z,97999.91
2023-04-03T11:04:05.272Z,97997.25
2023-04-03T11:06:40.730Z,98002.25
2023-04-03T11:09:16.680Z,97989.75
2023-04-03T11:11:44.958Z,97986.84
2023-04-03T11:14:38.202Z,97987.56
2023-04-03T11:17:17.759Z,97975.31
2023-04-03T11:20:08.264Z,97980.34
2023-04-03T11:22:40.370Z,97981.78
2023-04-03T11:25:12.948Z,97973.00
2023-04-03T11:27:53.060Z,97963.59
2023-04-03T11:30:26.020Z,97969.47
2023-04-03T11:33:03.271Z,97981.72
2023-04-03T11:35:31.620Z,97966.31
2023-04-03T11:38:03.061Z,97966.38
2023-04-03T11:40:35.951Z,97965.47
2023-04-03T11:43:22.442Z,97955.38
2023-04-03T11:46:00.641Z,97956.13
2023-04-03T11:48:34.432Z,97963.31
2023-04-03T11:51:22.004Z,97959.72
2023-04-03T11:53:49.851Z,97955.41
2023-04-03T11:56:26.303Z,97953.56
2023-04-03T11:59:24.420Z,97955.41
2023-04-03T12:01:55.467Z,97943.47
2023-04-03T12:04:25.928Z,97953.84
2023-04-03T12:07:23.512Z,97956.69
2023-04-03T12:09:50.271Z,97952.75
2023-04-03T12:12:31.676Z,97954.53
2023-04-03T12:15:19.599Z,97953.97
2023-04-03T12:17:46.807Z,97946.88
2023-04-03T12:20:50.969Z,97954.03
2023-04-03T12:23:34.226Z,97948.03
2023-04-03T12:26:21.039Z,97946.81
2023-04-03T12:28:49.717Z,97946.28
2023-04-03T12:31:18.356Z,97941.31
2023-04-03T12:34:22.039Z,97943.78
2023-04-03T12:36:56.384Z,97944.16
2023-04-03T12:39:44.235Z,97934.66
2023-04-03T12:42:22.241Z,97933.75
2023-04-03T12:45:09.663Z,97939.31
2023-04-03T12:47:39.416Z,97930.22
2023-04-03T12:50:20.799Z,97927.63
2023-04-03T12:53:14.399Z,97927.13
2023-04-03T12:55:41.108Z,97927.88
2023-04-03T12:58:28.627Z,97929.03
2023-04-03T13:01:02.798Z,97924.22
2023-04-03T13:03:30.303Z,97925.09
2023-04-03T13:06:01.866Z,97921.69
2023-04-03T13:08:29.828Z,97921.78
2023-04-03T13:11:02.431Z,97925.22
2023-04-03T13:13:32.351Z,97925.66
2023-04-03T13:15:59.503Z,97929.72
2023-04-03T13:18:34.274Z,97928.38
2023-04-03T13:21:14.686Z,97930.00
2023-04-03T13:23:46.427Z,97925.44
2023-04-03T13:26:13.810Z,97921.59
2023-04-03T13:28:41.842Z,97919.31
2023-04-03T13:31:15.406Z,97926.94
2023-04-03T13:33:54.758Z,97926.91
2023-04-03T13:36:29.308Z,97919.97
2023-04-03T13:39:02.105Z,97925.66
2023-04-03T13:41:38.072Z,97921.09
2023-04-03T13:44:23.092Z,97924.72
2023-04-03T13:46:58.101Z,97924.31
2023-04-03T13:49:29.135Z,97924.63
2023-04-03T13:52:06.385Z,97921.84
2023-04-03T13:54:39.774Z,97904.53
2023-04-03T13:57:17.157Z,97923.66
2023-04-03T13:59:44.475Z,97915.00
2023-04-03T14:02:13.962Z,97913.06
2023-04-03T14:04:46.687Z,97904.41
2023-04-03T14:07:14.949Z,97906.78
2023-04-03T14:09:41.924Z,97915.44
2023-04-03T14:12:32.625Z,97904.97
2023-04-03T14:15:02.313Z,97897.56
2023-04-03T14:17:29.822Z,97892.25
2023-04-03T14:19:58.377Z,97906.22
2023-04-03T14:22:30.787Z,97904.25
2023-04-03T14:24:58.643Z,97910.78
2023-04-03T14:27:34.207Z,97901.97
2023-04-03T14:30:01.573Z,97896.81
2023-04-03T14:32:28.955Z,97902.00
2023-04-03T14:34:56.520Z,97901.00
2023-04-03T14:37:28.977Z,97903.09
2023-04-03T14:39:59.131Z,97897.00
2023-04-03T14:42:29.939Z,97896.72
2023-04-03T14:44:56.710Z,97884.59
2023-04-03T14:47:31.650Z,97892.53
2023-04-03T14:50:01.420Z,97885.56
2023-04-03T14:52:31.606Z,97886.13
2023-04-03T14:54:58.545Z,97890.97
2023-04-03T14:57:27.260Z,97893.63
2023-04-03T14:59:54.120Z,97890.25
2023-04-03T15:02:35.670Z,97892.53
2023-04-03T15:05:06.656Z,97893.22
2023-04-03T15:07:42.386Z,97891.84
2023-04-03T15:10:26.101Z,97901.91
2023-04-03T15:12:53.413Z,97895.91
2023-04-03T15:15:22.175Z,97886.81
2023-04-03T15:17:55.165Z,97895.34
2023-04-03T15:20:25.182Z,97893.94
2023-04-03T15:22:52.006Z,97902.88
2023-04-03T15:25:19.451Z,97897.84
2023-04-03T15:27:46.492Z,97900.19
2023-04-03T15:30:17.166Z,97897.97
2023-04-03T15:32:44.296Z,97901.06
2023-04-03T15:35:11.632Z,97897.28
2023-04-03T15:37:38.487Z,97891.84
2023-04-03T15:40:07.211Z,97889.75
2023-04-03T15:42:34.598Z,97898.41
2023-04-03T15:45:05.223Z,97893.38
2023-04-03T15:47:32.291Z,97882.84
2023-04-03T15:49:59.456Z,97899.53
2023-04-03T15:52:26.226Z,97902.19
2023-04-03T15:54:52.887Z,97901.31
2023-04-03T15:57:19.604Z,97902.56
2023-04-03T15:59:46.735Z,97893.34
2023-04-03T16:02:14.476Z,97911.22
2023-04-03T16:04:42.293Z,97909.69
2023-04-03T16:07:09.007Z,97899.22
2023-04-03T16:09:36.714Z,97902.00
2023-04-03T16:12:04.100Z,97900.59
2023-04-03T16:14:31.529Z,97900.88
2023-04-03T16:17:02.239Z,97901.56
2023-04-03T16:19:30.838Z,97907.84
2023-04-03T16:21:57.850Z,97900.63
2023-04-03T16:24:24.547Z,97906.50
2023-04-03T16:26:51.666Z,97909.69
2023-04-03T16:29:18.890Z,97917.94
2023-04-03T16:31:45.844Z,97912.91
2023-04-03T16:34:13.113Z,97917.63
2023-04-03T16:36:40.163Z,97921.09
2023-04-03T16:39:06.896Z,97924.31
2023-04-03T16:41:33.552Z,97921.94
2023-04-03T16:44:00.238Z,97921.38
2023-04-03T16:46:26.926Z,97924.31
2023-04-03T16:48:53.893Z,97934.06
2023-04-03T16:51:20.780Z,97922.19
2023-04-03T16:53:47.442Z,97931.22
2023-04-03T16:56:14.074Z,97930.38
2023-04-03T16:58:40.930Z,97937.63
2023-04-03T17:01:16.332Z,97938.81
2023-04-03T17:03:43.239Z,97935.44
2023-04-03T17:06:17.204Z,97934.59
2023-04-03T17:08:46.177Z,97944.09
2023-04-03T17:11:12.953Z,97936.66
2023-04-03T17:13:39.722Z,97944.31
2023-04-03T17:16:10.114Z,97946.25
2023-04-03T17:18:37.284Z,97948.91
2023-04-03T17:21:05.055Z,97947.47
2023-04-03T17:23:32.256Z,97950.41
2023-04-03T17:25:58.905Z,97954.03
2023-04-03T17:28:28.908Z,97948.16
2023-04-03T17:30:57.022Z,97951.91
2023-04-03T17:33:23.895Z,97952.88
2023-04-03T17:35:50.929Z,97959.84
2023-04-03T17:38:17.693Z,97954.81
2023-04-03T17:40:45.490Z,97962.88
2023-04-03T17:43:12.658Z,97970.97
2023-04-03T17:45:39.721Z,97958.00
2023-04-03T17:48:06.881Z,97961.59
2023-04-03T17:50:33.666Z,97963.41
2023-04-03T17:53:00.480Z,97964.53
2023-04-03T17:55:27.149Z,97967.16
2023-04-03T17:57:54.134Z,97971.88
2023-04-03T18:00:21.071Z,97969.25
2023-04-03T18:02:48.396Z,97992.38
2023-04-03T18:05:15.060Z,97982.75
2023-04-03T18:07:41.861Z,97985.66
2023-04-03T18:10:09.615Z,97984.81
2023-04-03T18:12:38.744Z,97983.97
2023-04-03T18:15:06.433Z,97992.03
2023-04-03T18:17:36.836Z,97990.63
2023-04-03T18:20:07.130Z,98007.34
2023-04-03T18:22:34.296Z,98005.00
2023-04-03T18:25:01.395Z,98003.44
2023-04-03T18:27:29.119Z,98013.19
2023-04-03T18:30:17.776Z,98013.19
2023-04-03T18:32:45.438Z,98015.13
2023-04-03T18:35:13.002Z,98018.88
2023-04-03T18:37:40.142Z,98015.53
2023-04-03T18:40:07.951Z,98027.06
2023-04-03T18:42:35.190Z,98023.59
2023-04-03T18:45:05.898Z,98027.06
2023-04-03T18:47:33.472Z,98028.16
2023-04-03T18:50:00.196Z,98030.09
2023-04-03T18:52:27.073Z,98031.91
2023-04-03T18:54:53.872Z,98040.81
2023-04-03T18:57:20.563Z,98030.34
2023-04-03T18:59:47.238Z,98030.63
2023-04-03T19:02:14.983Z,98036.75
2023-04-03T19:04:41.865Z,98041.22
2023-04-03T19:07:10.494Z,98052.88
2023-04-03T19:09:38.848Z,98041.59
2023-04-03T19:12:07.390Z,98052.16
2023-04-03T19:14:34.160Z,98053.13
2023-04-03T19:17:02.557Z,98055.91
2023-04-03T19:19:29.808Z,98057.00
2023-04-03T19:21:56.508Z,98054.34
2023-04-03T19:24:23.163Z,98059.78
2023-04-03T19:26:50.026Z,98055.31
2023-04-03T19:29:16.753Z,98059.19
2023-04-03T19:31:43.511Z,98060.88
2023-04-03T19:34:10.656Z,98061.97
2023-04-03T19:36:37.904Z,98062.78
2023-04-03T19:39:06.248Z,98070.88
2023-04-03T19:41:36.846Z,98067.63
2023-04-03T19:44:06.497Z,98071.31
2023-04-03T19:46:34.827Z,98065.09
2023-04-03T19:49:01.837Z,98068.81
2023-04-03T19:51:28.717Z,98070.63
2023-04-03T19:53:55.967Z,98061.13
2023-04-03T19:56:23.767Z,98069.06
2023-04-03T19:58:57.130Z,98064.72
2023-04-03T20:01:24.898Z,98067.50
2023-04-03T20:03:52.511Z,98071.22
2023-04-03T20:06:19.764Z,98074.84
2023-04-03T20:08:47.114Z,98070.63
2023-04-03T20:11:14.655Z,98064.50
2023-04-03T20:13:47.061Z,98078.69
2023-04-03T20:16:14.540Z,98077.84
2023-04-03T20:18:42.514Z,98077.97
2023-04-03T20:21:11.175Z,98073.66
2023-04-03T20:23:41.711Z,98074.88
2023-04-03T20:26:12.227Z,98070.53
2023-04-03T20:28:46.133Z,98075.81
2023-04-03T20:31:17.999Z,98068.00
2023-04-03T20:33:46.587Z,98063.81
2023-04-03T20:36:14.486Z,98066.47
2023-04-03T20:38:42.246Z,98064.94
2023-04-03T20:41:13.261Z,98068.38
2023-04-03T20:43:43.354Z,98067.69
2023-04-03T20:46:14.300Z,98070.47
2023-04-03T20:48:42.044Z,98068.91
2023-04-03T20:51:20.500Z,98066.25
2023-04-03T20:53:48.258Z,98065.53
2023-04-03T20:56:16.802Z,98066.38
2023-04-03T20:58:46.277Z,98062.91
2023-04-03T21:01:21.964Z,98057.00
2023-04-03T21:03:51.416Z,98065.06
2023-04-03T21:06:56.650Z,98059.78
2023-04-03T21:10:01.077Z,98055.56
2023-04-03T21:13:06.089Z,98060.97
2023-04-03T21:16:00.240Z,98060.25
2023-04-03T21:18:52.401Z,98058.47
2023-04-03T21:21:23.405Z,98063.88
2023-04-03T21:23:52.070Z,98057.88
2023-04-03T21:26:23.221Z,98056.31
2023-04-03T21:28:51.395Z,98051.84
2023-04-03T21:31:19.775Z,98056.53
2023-04-03T21:33:46.777Z,98059.19
2023-04-03T21:36:13.618Z,98058.34
2023-04-03T21:38:40.936Z,98057.50
2023-04-03T21:41:08.066Z,98055.94
2023-04-03T21:43:35.240Z,98056.91
2023-04-03T21:46:02.164Z,98052.59
2023-04-03T21:48:30.884Z,98059.78
2023-04-03T21:51:05.464Z,98060.75
2023-04-03T21:53:33.826Z,98063.41
2023-04-03T21:56:03.499Z,98055.59
2023-04-03T21:58:32.368Z,98051.38
2023-04-03T22:01:14.114Z,98055.00
2023-04-03T22:03:42.761Z,98059.56
2023-04-03T22:06:11.785Z,98060.50
2023-04-03T22:08:38.907Z,98055.34
2023-04-03T22:11:08.130Z,98052.72
2023-04-03T22:13:36.331Z,98051.03
2023-04-03T22:16:03.219Z,98045.03
2023-04-03T22:18:30.618Z,98058.13
2023-04-03T22:20:57.687Z,98051.25
2023-04-03T22:23:25.251Z,98057.50
2023-04-03T22:26:06.597Z,98057.41
2023-04-03T22:28:42.542Z,98055.00
2023-04-03T22:31:11.174Z,98051.50
2023-04-03T22:33:38.435Z,98048.13
2023-04-03T22:36:06.938Z,98048.03
2023-04-03T22:38:35.151Z,98045.63
2023-04-03T22:41:03.915Z,98045.63
2023-04-03T22:43:33.372Z,98047.41
2023-04-03T22:46:01.969Z,98044.78
2023-04-03T22:48:28.894Z,98035.41
2023-04-03T22:51:00.231Z,98037.22
2023-04-03T22:53:28.229Z,98045.25
2023-04-03T22:55:59.468Z,98041.53
2023-04-03T22:58:27.798Z,98040.69
2023-04-03T23:01:08.264Z,98040.81
2023-04-03T23:03:36.730Z,98038.41
2023-04-03T23:06:04.720Z,98042.72
2023-04-03T23:08:32.699Z,98042.13
2023-04-03T23:11:00.206Z,98037.69
2023-04-03T23:13:27.905Z,98034.09
2023-04-03T23:15:55.945Z,98039.59
2023-04-03T23:18:23.332Z,98030.97
2023-04-03T23:20:52.076Z,98041.28
2023-04-03T23:23:21.998Z,98025.69
2023-04-03T23:25:57.357Z,98027.59
2023-04-03T23:28:24.391Z,98034.00
2023-04-03T23:30:57.420Z,98039.16
2023-04-03T23:33:24.215Z,98039.34
2023-04-03T23:35:52.365Z,98037.69
2023-04-03T23:38:19.288Z,98028.91
2023-04-03T23:40:47.318Z,98024.47
2023-04-03T23:43:14.149Z,98028.78
2023-04-03T23:45:42.050Z,98029.03
2023-04-03T23:48:09.136Z,98028.06
2023-04-03T23:50:35.876Z,98027.22
2023-04-03T23:53:02.773Z,98030.22
2023-04-03T23:55:29.496Z,98026.50
2023-04-03T23:57:56.523Z,98020.38
